sensor_id;sensor_type;location;lat;lon;timestamp;temperature;humidity
6841;DHT22;3458;53.678;14.080;2023-04-03T00:01:29;4.00;92.70
6841;DHT22;3458;53.678;14.080;2023-04-03T00:03:55;4.00;92.60
6841;DHT22;3458;53.678;14.080;2023-04-03T00:06:21;4.00;92.70
6841;DHT22;3458;53.678;14.080;2023-04-03T00:08:47;3.90;92.80
6841;DHT22;3458;53.678;14.080;2023-04-03T00:11:13;3.90;93.00
6841;DHT22;3458;53.678;14.080;2023-04-03T00:13:39;3.90;93.20
6841;DHT22;3458;53.678;14.080;2023-04-03T00:16:06;3.90;93.20
6841;DHT22;3458;53.678;14.080;2023-04-03T00:18:31;3.90;93.70
6841;DHT22;3458;53.678;14.080;2023-04-03T00:20:58;3.90;93.60
6841;DHT22;3458;53.678;14.080;2023-04-03T00:23:23;3.90;93.70
6841;DHT22;3458;53.678;14.080;2023-04-03T00:25:49;3.90;94.00
6841;DHT22;3458;53.678;14.080;2023-04-03T00:28:15;3.90;94.00
6841;DHT22;3458;53.678;14.080;2023-04-03T00:30:41;3.90;94.20
6841;DHT22;3458;53.678;14.080;2023-04-03T00:33:07;3.90;94.40
6841;DHT22;3458;53.678;14.080;2023-04-03T00:35:34;4.00;94.50
6841;DHT22;3458;53.678;14.080;2023-04-03T00:38:00;4.00;94.60
6841;DHT22;3458;53.678;14.080;2023-04-03T00:40:26;4.00;94.60
6841;DHT22;3458;53.678;14.080;2023-04-03T00:42:56;3.90;94.80
6841;DHT22;3458;53.678;14.080;2023-04-03T00:45:32;3.90;94.90
6841;DHT22;3458;53.678;14.080;2023-04-03T00:47:59;3.90;95.10
6841;DHT22;3458;53.678;14.080;2023-04-03T00:50:28;3.90;95.20
6841;DHT22;3458;53.678;14.080;2023-04-03T00:52:54;3.90;95.20
6841;DHT22;3458;53.678;14.080;2023-04-03T00:55:20;3.90;95.30
6841;DHT22;3458;53.678;14.080;2023-04-03T00:57:47;3.90;95.30
6841;DHT22;3458;53.678;14.080;2023-04-03T01:00:16;3.90;95.40
6841;DHT22;3458;53.678;14.080;2023-04-03T01:02:42;3.90;95.50
6841;DHT22;3458;53.678;14.080;2023-04-03T01:05:08;3.90;95.50
6841;DHT22;3458;53.678;14.080;2023-04-03T01:07:34;3.90;95.60
6841;DHT22;3458;53.678;14.080;2023-04-03T01:10:04;3.90;95.60
6841;DHT22;3458;53.678;14.080;2023-04-03T01:12:34;3.90;95.70
6841;DHT22;3458;53.678;14.080;2023-04-03T01:15:05;3.90;95.80
6841;DHT22;3458;53.678;14.080;2023-04-03T01:25:25;3.90;96.40
6841;DHT22;3458;53.678;14.080;2023-04-03T01:27:51;3.90;96.70
6841;DHT22;3458;53.678;14.080;2023-04-03T01:30:19;3.90;96.80
6841;DHT22;3458;53.678;14.080;2023-04-03T01:32:45;3.90;97.00
6841;DHT22;3458;53.678;14.080;2023-04-03T01:35:11;4.00;97.10
6841;DHT22;3458;53.678;14.080;2023-04-03T01:37:37;4.00;97.30
6841;DHT22;3458;53.678;14.080;2023-04-03T01:40:03;4.00;97.40
6841;DHT22;3458;53.678;14.080;2023-04-03T01:42:29;4.00;97.80
6841;DHT22;3458;53.678;14.080;2023-04-03T01:44:55;4.00;97.40
6841;DHT22;3458;53.678;14.080;2023-04-03T01:47:21;4.00;97.50
6841;DHT22;3458;53.678;14.080;2023-04-03T01:49:47;4.10;97.60
6841;DHT22;3458;53.678;14.080;2023-04-03T01:52:12;4.10;97.70
6841;DHT22;3458;53.678;14.080;2023-04-03T01:54:38;4.20;97.90
6841;DHT22;3458;53.678;14.080;2023-04-03T01:57:03;4.20;98.10
6841;DHT22;3458;53.678;14.080;2023-04-03T01:59:29;4.30;98.20
6841;DHT22;3458;53.678;14.080;2023-04-03T02:01:54;4.30;98.30
6841;DHT22;3458;53.678;14.080;2023-04-03T02:04:20;4.30;98.30
6841;DHT22;3458;53.678;14.080;2023-04-03T02:06:45;4.30;98.50
6841;DHT22;3458;53.678;14.080;2023-04-03T02:09:11;4.30;98.50
6841;DHT22;3458;53.678;14.080;2023-04-03T02:11:36;4.30;98.50
6841;DHT22;3458;53.678;14.080;2023-04-03T02:14:02;4.30;98.50
6841;DHT22;3458;53.678;14.080;2023-04-03T02:16:27;4.30;98.60
6841;DHT22;3458;53.678;14.080;2023-04-03T02:18:54;4.20;98.50
6841;DHT22;3458;53.678;14.080;2023-04-03T02:21:19;4.20;98.10
6841;DHT22;3458;53.678;14.080;2023-04-03T02:23:45;4.10;98.00
6841;DHT22;3458;53.678;14.080;2023-04-03T02:26:12;4.10;97.90
6841;DHT22;3458;53.678;14.080;2023-04-03T02:28:38;4.10;97.90
6841;DHT22;3458;53.678;14.080;2023-04-03T02:31:04;4.10;97.90
6841;DHT22;3458;53.678;14.080;2023-04-03T02:33:31;4.10;97.80
6841;DHT22;3458;53.678;14.080;2023-04-03T02:35:57;4.10;97.60
6841;DHT22;3458;53.678;14.080;2023-04-03T02:38:24;4.00;97.60
6841;DHT22;3458;53.678;14.080;2023-04-03T02:40:49;4.00;97.60
6841;DHT22;3458;53.678;14.080;2023-04-03T02:43:16;4.00;97.60
6841;DHT22;3458;53.678;14.080;2023-04-03T02:45:42;4.00;97.50
6841;DHT22;3458;53.678;14.080;2023-04-03T02:48:07;4.00;97.50
6841;DHT22;3458;53.678;14.080;2023-04-03T02:50:33;4.00;97.50
6841;DHT22;3458;53.678;14.080;2023-04-03T02:52:58;3.90;97.40
6841;DHT22;3458;53.678;14.080;2023-04-03T02:55:24;3.90;97.20
6841;DHT22;3458;53.678;14.080;2023-04-03T02:57:49;3.90;97.20
6841;DHT22;3458;53.678;14.080;2023-04-03T03:00:15;3.90;97.10
6841;DHT22;3458;53.678;14.080;2023-04-03T03:02:41;3.80;97.10
6841;DHT22;3458;53.678;14.080;2023-04-03T03:05:07;3.80;97.00
6841;DHT22;3458;53.678;14.080;2023-04-03T03:07:33;3.90;97.00
6841;DHT22;3458;53.678;14.080;2023-04-03T03:09:58;3.80;97.00
6841;DHT22;3458;53.678;14.080;2023-04-03T03:12:24;3.80;97.20
6841;DHT22;3458;53.678;14.080;2023-04-03T03:14:50;3.80;97.20
6841;DHT22;3458;53.678;14.080;2023-04-03T03:17:16;3.80;97.10
6841;DHT22;3458;53.678;14.080;2023-04-03T03:19:42;3.70;97.00
6841;DHT22;3458;53.678;14.080;2023-04-03T03:22:08;3.70;97.20
6841;DHT22;3458;53.678;14.080;2023-04-03T03:24:33;3.70;97.10
6841;DHT22;3458;53.678;14.080;2023-04-03T03:26:59;3.70;97.10
6841;DHT22;3458;53.678;14.080;2023-04-03T03:29:24;3.70;97.10
6841;DHT22;3458;53.678;14.080;2023-04-03T03:31:50;3.60;97.30
6841;DHT22;3458;53.678;14.080;2023-04-03T03:34:16;3.70;97.30
6841;DHT22;3458;53.678;14.080;2023-04-03T03:36:41;3.70;97.10
6841;DHT22;3458;53.678;14.080;2023-04-03T03:39:07;3.70;96.90
6841;DHT22;3458;53.678;14.080;2023-04-03T03:41:32;3.70;97.30
6841;DHT22;3458;53.678;14.080;2023-04-03T03:43:58;3.70;97.00
6841;DHT22;3458;53.678;14.080;2023-04-03T03:46:23;3.60;96.90
6841;DHT22;3458;53.678;14.080;2023-04-03T03:48:49;3.60;97.00
6841;DHT22;3458;53.678;14.080;2023-04-03T03:51:14;3.60;97.00
6841;DHT22;3458;53.678;14.080;2023-04-03T03:53:40;3.60;96.70
6841;DHT22;3458;53.678;14.080;2023-04-03T03:56:06;3.60;96.60
6841;DHT22;3458;53.678;14.080;2023-04-03T03:58:32;3.60;96.50
6841;DHT22;3458;53.678;14.080;2023-04-03T04:01:01;3.60;96.20
6841;DHT22;3458;53.678;14.080;2023-04-03T04:03:27;3.50;96.00
6841;DHT22;3458;53.678;14.080;2023-04-03T04:05:52;3.50;95.80
6841;DHT22;3458;53.678;14.080;2023-04-03T04:08:18;3.50;95.90
6841;DHT22;3458;53.678;14.080;2023-04-03T04:10:43;3.50;96.00
6841;DHT22;3458;53.678;14.080;2023-04-03T04:13:09;3.50;96.10
6841;DHT22;3458;53.678;14.080;2023-04-03T04:15:34;3.50;96.20
6841;DHT22;3458;53.678;14.080;2023-04-03T04:18:00;3.40;96.30
6841;DHT22;3458;53.678;14.080;2023-04-03T04:20:25;3.50;96.40
6841;DHT22;3458;53.678;14.080;2023-04-03T04:22:51;3.50;96.30
6841;DHT22;3458;53.678;14.080;2023-04-03T04:25:16;3.50;96.40
6841;DHT22;3458;53.678;14.080;2023-04-03T04:27:42;3.50;96.40
6841;DHT22;3458;53.678;14.080;2023-04-03T04:30:08;3.50;96.20
6841;DHT22;3458;53.678;14.080;2023-04-03T04:32:34;3.40;96.20
6841;DHT22;3458;53.678;14.080;2023-04-03T04:35:00;3.40;96.20
6841;DHT22;3458;53.678;14.080;2023-04-03T04:37:26;3.40;96.10
6841;DHT22;3458;53.678;14.080;2023-04-03T04:39:51;3.40;95.30
6841;DHT22;3458;53.678;14.080;2023-04-03T04:42:17;3.40;94.50
6841;DHT22;3458;53.678;14.080;2023-04-03T04:44:42;3.40;94.30
6841;DHT22;3458;53.678;14.080;2023-04-03T04:47:08;3.40;94.00
6841;DHT22;3458;53.678;14.080;2023-04-03T04:49:34;3.40;93.40
6841;DHT22;3458;53.678;14.080;2023-04-03T04:51:59;3.40;93.10
6841;DHT22;3458;53.678;14.080;2023-04-03T04:54:25;3.50;93.50
6841;DHT22;3458;53.678;14.080;2023-04-03T04:56:50;3.50;92.80
6841;DHT22;3458;53.678;14.080;2023-04-03T04:59:16;3.50;92.70
6841;DHT22;3458;53.678;14.080;2023-04-03T05:01:41;3.60;92.80
6841;DHT22;3458;53.678;14.080;2023-04-03T05:04:07;3.60;92.90
6841;DHT22;3458;53.678;14.080;2023-04-03T05:06:32;3.60;92.70
6841;DHT22;3458;53.678;14.080;2023-04-03T05:08:58;3.60;92.30
6841;DHT22;3458;53.678;14.080;2023-04-03T05:11:24;3.60;92.00
6841;DHT22;3458;53.678;14.080;2023-04-03T05:13:50;3.60;92.60
6841;DHT22;3458;53.678;14.080;2023-04-03T05:16:16;3.70;92.00
6841;DHT22;3458;53.678;14.080;2023-04-03T05:18:41;3.70;91.90
6841;DHT22;3458;53.678;14.080;2023-04-03T05:21:07;3.70;91.50
6841;DHT22;3458;53.678;14.080;2023-04-03T05:23:32;3.70;91.30
6841;DHT22;3458;53.678;14.080;2023-04-03T05:25:58;3.70;91.40
6841;DHT22;3458;53.678;14.080;2023-04-03T05:28:24;3.60;90.90
6841;DHT22;3458;53.678;14.080;2023-04-03T05:30:57;3.60;91.00
6841;DHT22;3458;53.678;14.080;2023-04-03T05:33:23;3.60;91.00
6841;DHT22;3458;53.678;14.080;2023-04-03T05:35:49;3.60;90.80
6841;DHT22;3458;53.678;14.080;2023-04-03T05:38:15;3.70;90.90
6841;DHT22;3458;53.678;14.080;2023-04-03T05:40:40;3.70;90.80
6841;DHT22;3458;53.678;14.080;2023-04-03T05:43:06;3.70;90.70
6841;DHT22;3458;53.678;14.080;2023-04-03T05:45:32;3.80;90.80
6841;DHT22;3458;53.678;14.080;2023-04-03T05:47:57;3.70;90.40
6841;DHT22;3458;53.678;14.080;2023-04-03T05:50:23;3.70;90.70
6841;DHT22;3458;53.678;14.080;2023-04-03T05:52:49;3.70;90.60
6841;DHT22;3458;53.678;14.080;2023-04-03T05:55:16;3.70;90.20
6841;DHT22;3458;53.678;14.080;2023-04-03T05:57:41;3.80;90.50
6841;DHT22;3458;53.678;14.080;2023-04-03T06:00:08;3.80;90.40
6841;DHT22;3458;53.678;14.080;2023-04-03T06:02:35;4.00;90.60
6841;DHT22;3458;53.678;14.080;2023-04-03T06:05:01;4.00;90.20
6841;DHT22;3458;53.678;14.080;2023-04-03T06:07:27;4.00;89.80
6841;DHT22;3458;53.678;14.080;2023-04-03T06:09:55;4.10;89.90
6841;DHT22;3458;53.678;14.080;2023-04-03T06:12:21;4.10;89.10
6841;DHT22;3458;53.678;14.080;2023-04-03T06:14:47;4.10;89.20
6841;DHT22;3458;53.678;14.080;2023-04-03T06:17:13;4.10;88.70
6841;DHT22;3458;53.678;14.080;2023-04-03T06:19:40;4.10;88.40
6841;DHT22;3458;53.678;14.080;2023-04-03T06:22:06;4.00;87.70
6841;DHT22;3458;53.678;14.080;2023-04-03T06:24:31;4.10;88.70
6841;DHT22;3458;53.678;14.080;2023-04-03T06:26:57;4.10;88.70
6841;DHT22;3458;53.678;14.080;2023-04-03T06:29:23;4.10;88.50
6841;DHT22;3458;53.678;14.080;2023-04-03T06:31:50;4.20;88.60
6841;DHT22;3458;53.678;14.080;2023-04-03T06:34:16;4.20;88.10
6841;DHT22;3458;53.678;14.080;2023-04-03T06:36:42;4.20;87.50
6841;DHT22;3458;53.678;14.080;2023-04-03T06:39:11;4.30;86.50
6841;DHT22;3458;53.678;14.080;2023-04-03T06:41:38;4.30;84.50
6841;DHT22;3458;53.678;14.080;2023-04-03T06:44:04;4.30;83.60
6841;DHT22;3458;53.678;14.080;2023-04-03T06:46:29;4.30;84.40
6841;DHT22;3458;53.678;14.080;2023-04-03T06:48:55;4.40;85.10
6841;DHT22;3458;53.678;14.080;2023-04-03T06:51:26;4.40;85.10
6841;DHT22;3458;53.678;14.080;2023-04-03T06:53:53;4.40;85.80
6841;DHT22;3458;53.678;14.080;2023-04-03T06:56:19;4.40;86.60
6841;DHT22;3458;53.678;14.080;2023-04-03T06:58:45;4.40;87.10
6841;DHT22;3458;53.678;14.080;2023-04-03T07:01:12;4.50;87.40
6841;DHT22;3458;53.678;14.080;2023-04-03T07:03:39;4.50;85.60
6841;DHT22;3458;53.678;14.080;2023-04-03T07:06:06;4.50;85.80
6841;DHT22;3458;53.678;14.080;2023-04-03T07:08:32;4.50;85.70
6841;DHT22;3458;53.678;14.080;2023-04-03T07:10:58;4.60;85.70
6841;DHT22;3458;53.678;14.080;2023-04-03T07:13:24;4.60;85.30
6841;DHT22;3458;53.678;14.080;2023-04-03T07:15:49;4.60;85.10
6841;DHT22;3458;53.678;14.080;2023-04-03T07:18:16;4.70;85.00
6841;DHT22;3458;53.678;14.080;2023-04-03T07:20:42;4.70;83.90
6841;DHT22;3458;53.678;14.080;2023-04-03T07:23:08;4.70;81.40
6841;DHT22;3458;53.678;14.080;2023-04-03T07:25:33;4.70;81.00
6841;DHT22;3458;53.678;14.080;2023-04-03T07:27:59;4.70;81.00
6841;DHT22;3458;53.678;14.080;2023-04-03T07:30:24;4.80;81.00
6841;DHT22;3458;53.678;14.080;2023-04-03T07:32:50;4.80;80.70
6841;DHT22;3458;53.678;14.080;2023-04-03T07:35:17;4.90;81.20
6841;DHT22;3458;53.678;14.080;2023-04-03T07:37:42;4.80;81.10
6841;DHT22;3458;53.678;14.080;2023-04-03T07:40:09;4.80;82.50
6841;DHT22;3458;53.678;14.080;2023-04-03T07:42:34;4.80;82.80
6841;DHT22;3458;53.678;14.080;2023-04-03T07:45:01;4.90;82.50
6841;DHT22;3458;53.678;14.080;2023-04-03T07:47:27;5.00;81.60
6841;DHT22;3458;53.678;14.080;2023-04-03T07:49:52;5.00;82.50
6841;DHT22;3458;53.678;14.080;2023-04-03T07:52:18;5.00;82.00
6841;DHT22;3458;53.678;14.080;2023-04-03T07:54:43;5.00;79.60
6841;DHT22;3458;53.678;14.080;2023-04-03T07:57:09;5.00;79.20
6841;DHT22;3458;53.678;14.080;2023-04-03T07:59:34;5.10;79.50
6841;DHT22;3458;53.678;14.080;2023-04-03T08:02:00;5.20;79.70
6841;DHT22;3458;53.678;14.080;2023-04-03T08:04:26;5.30;80.20
6841;DHT22;3458;53.678;14.080;2023-04-03T08:06:52;5.30;80.70
6841;DHT22;3458;53.678;14.080;2023-04-03T08:09:18;5.40;82.50
6841;DHT22;3458;53.678;14.080;2023-04-03T08:11:45;5.50;82.90
6841;DHT22;3458;53.678;14.080;2023-04-03T08:14:11;5.60;82.80
6841;DHT22;3458;53.678;14.080;2023-04-03T08:16:42;5.60;82.20
6841;DHT22;3458;53.678;14.080;2023-04-03T08:19:07;5.70;81.50
6841;DHT22;3458;53.678;14.080;2023-04-03T08:21:33;5.80;80.30
6841;DHT22;3458;53.678;14.080;2023-04-03T08:23:58;5.80;79.20
6841;DHT22;3458;53.678;14.080;2023-04-03T08:26:24;5.50;76.90
6841;DHT22;3458;53.678;14.080;2023-04-03T08:28:51;5.50;76.30
6841;DHT22;3458;53.678;14.080;2023-04-03T08:31:19;5.50;76.50
6841;DHT22;3458;53.678;14.080;2023-04-03T08:33:45;5.30;75.80
6841;DHT22;3458;53.678;14.080;2023-04-03T08:36:23;5.30;77.20
6841;DHT22;3458;53.678;14.080;2023-04-03T08:38:50;5.40;77.40
6841;DHT22;3458;53.678;14.080;2023-04-03T08:41:36;5.40;77.40
6841;DHT22;3458;53.678;14.080;2023-04-03T08:47:23;5.70;78.10
6841;DHT22;3458;53.678;14.080;2023-04-03T08:49:59;5.70;78.50
6841;DHT22;3458;53.678;14.080;2023-04-03T08:52:38;5.80;78.90
6841;DHT22;3458;53.678;14.080;2023-04-03T08:55:20;5.90;79.70
6841;DHT22;3458;53.678;14.080;2023-04-03T08:57:48;5.90;80.90
6841;DHT22;3458;53.678;14.080;2023-04-03T09:00:24;6.00;80.90
6841;DHT22;3458;53.678;14.080;2023-04-03T09:02:55;6.10;81.80
6841;DHT22;3458;53.678;14.080;2023-04-03T09:08:14;6.20;79.30
6841;DHT22;3458;53.678;14.080;2023-04-03T09:10:43;6.10;79.50
6841;DHT22;3458;53.678;14.080;2023-04-03T09:13:29;6.00;78.40
6841;DHT22;3458;53.678;14.080;2023-04-03T09:15:56;5.90;76.90
6841;DHT22;3458;53.678;14.080;2023-04-03T09:18:30;5.80;77.40
6841;DHT22;3458;53.678;14.080;2023-04-03T09:21:32;5.80;77.80
6841;DHT22;3458;53.678;14.080;2023-04-03T09:24:01;5.70;78.00
6841;DHT22;3458;53.678;14.080;2023-04-03T09:26:33;5.60;78.20
6841;DHT22;3458;53.678;14.080;2023-04-03T09:29:05;5.50;79.80
6841;DHT22;3458;53.678;14.080;2023-04-03T09:31:37;5.50;80.60
6841;DHT22;3458;53.678;14.080;2023-04-03T09:34:26;5.40;80.50
6841;DHT22;3458;53.678;14.080;2023-04-03T09:36:55;5.40;80.80
6841;DHT22;3458;53.678;14.080;2023-04-03T09:39:26;5.40;81.40
6841;DHT22;3458;53.678;14.080;2023-04-03T09:42:16;5.30;82.40
6841;DHT22;3458;53.678;14.080;2023-04-03T09:44:54;5.20;83.20
6841;DHT22;3458;53.678;14.080;2023-04-03T09:49:50;5.20;84.70
6841;DHT22;3458;53.678;14.080;2023-04-03T09:52:22;5.20;85.20
6841;DHT22;3458;53.678;14.080;2023-04-03T09:54:48;5.20;85.90
6841;DHT22;3458;53.678;14.080;2023-04-03T09:57:14;5.10;87.10
6841;DHT22;3458;53.678;14.080;2023-04-03T09:59:45;5.20;88.40
6841;DHT22;3458;53.678;14.080;2023-04-03T10:04:41;5.40;87.80
6841;DHT22;3458;53.678;14.080;2023-04-03T10:07:35;5.40;88.30
6841;DHT22;3458;53.678;14.080;2023-04-03T10:10:17;5.50;87.60
6841;DHT22;3458;53.678;14.080;2023-04-03T10:12:43;5.40;87.90
6841;DHT22;3458;53.678;14.080;2023-04-03T10:15:16;5.40;88.20
6841;DHT22;3458;53.678;14.080;2023-04-03T10:18:02;5.30;87.80
6841;DHT22;3458;53.678;14.080;2023-04-03T10:20:47;5.40;88.30
6841;DHT22;3458;53.678;14.080;2023-04-03T10:23:26;5.40;89.20
6841;DHT22;3458;53.678;14.080;2023-04-03T10:26:08;5.50;90.10
6841;DHT22;3458;53.678;14.080;2023-04-03T10:29:02;5.50;88.70
6841;DHT22;3458;53.678;14.080;2023-04-03T10:31:53;5.60;89.00
6841;DHT22;3458;53.678;14.080;2023-04-03T10:34:21;5.60;87.90
6841;DHT22;3458;53.678;14.080;2023-04-03T10:37:25;5.80;88.80
6841;DHT22;3458;53.678;14.080;2023-04-03T10:39:59;6.00;88.70
6841;DHT22;3458;53.678;14.080;2023-04-03T10:48:11;6.10;84.90
6841;DHT22;3458;53.678;14.080;2023-04-03T10:51:16;5.90;85.70
6841;DHT22;3458;53.678;14.080;2023-04-03T10:56:28;5.90;89.80
6841;DHT22;3458;53.678;14.080;2023-04-03T10:59:13;5.90;90.20
6841;DHT22;3458;53.678;14.080;2023-04-03T11:01:45;5.90;90.80
6841;DHT22;3458;53.678;14.080;2023-04-03T11:04:12;5.90;91.10
6841;DHT22;3458;53.678;14.080;2023-04-03T11:06:47;6.00;92.10
6841;DHT22;3458;53.678;14.080;2023-04-03T11:09:21;6.20;92.40
6841;DHT22;3458;53.678;14.080;2023-04-03T11:11:48;6.20;91.70
6841;DHT22;3458;53.678;14.080;2023-04-03T11:14:24;6.40;92.30
6841;DHT22;3458;53.678;14.080;2023-04-03T11:17:04;6.50;92.10
6841;DHT22;3458;53.678;14.080;2023-04-03T11:19:34;6.60;92.70
6841;DHT22;3458;53.678;14.080;2023-04-03T11:22:22;6.60;92.20
6841;DHT22;3458;53.678;14.080;2023-04-03T11:27:37;6.40;92.60
6841;DHT22;3458;53.678;14.080;2023-04-03T11:30:07;6.30;92.50
6841;DHT22;3458;53.678;14.080;2023-04-03T11:32:56;6.20;92.60
6841;DHT22;3458;53.678;14.080;2023-04-03T11:35:25;6.20;92.30
6841;DHT22;3458;53.678;14.080;2023-04-03T11:37:52;6.30;91.90
6841;DHT22;3458;53.678;14.080;2023-04-03T11:40:25;6.30;91.60
6841;DHT22;3458;53.678;14.080;2023-04-03T11:43:21;6.30;91.60
6841;DHT22;3458;53.678;14.080;2023-04-03T11:46:03;6.40;92.00
6841;DHT22;3458;53.678;14.080;2023-04-03T11:53:41;6.70;90.80
6841;DHT22;3458;53.678;14.080;2023-04-03T12:01:56;6.60;91.20
6841;DHT22;3458;53.678;14.080;2023-04-03T12:04:25;6.60;91.60
6841;DHT22;3458;53.678;14.080;2023-04-03T12:06:58;6.70;92.10
6841;DHT22;3458;53.678;14.080;2023-04-03T12:09:28;6.70;91.70
6841;DHT22;3458;53.678;14.080;2023-04-03T12:11:56;6.80;92.20
6841;DHT22;3458;53.678;14.080;2023-04-03T12:14:23;6.80;91.80
6841;DHT22;3458;53.678;14.080;2023-04-03T12:16:52;7.00;92.50
6841;DHT22;3458;53.678;14.080;2023-04-03T12:19:31;7.20;92.70
6841;DHT22;3458;53.678;14.080;2023-04-03T12:24:30;7.10;92.30
6841;DHT22;3458;53.678;14.080;2023-04-03T12:32:29;6.70;92.30
6841;DHT22;3458;53.678;14.080;2023-04-03T12:35:29;6.50;92.50
6841;DHT22;3458;53.678;14.080;2023-04-03T12:38:14;6.40;92.30
6841;DHT22;3458;53.678;14.080;2023-04-03T12:44:32;6.10;91.90
6841;DHT22;3458;53.678;14.080;2023-04-03T12:46:42;6.10;93.00
6841;DHT22;3458;53.678;14.080;2023-04-03T12:51:57;6.30;94.80
6841;DHT22;3458;53.678;14.080;2023-04-03T12:54:30;6.50;94.80
6841;DHT22;3458;53.678;14.080;2023-04-03T12:57:32;7.00;94.90
6841;DHT22;3458;53.678;14.080;2023-04-03T12:59:58;7.70;94.50
6841;DHT22;3458;53.678;14.080;2023-04-03T13:02:30;8.20;93.20
6841;DHT22;3458;53.678;14.080;2023-04-03T13:05:08;8.60;92.10
6841;DHT22;3458;53.678;14.080;2023-04-03T13:07:38;8.80;91.70
6841;DHT22;3458;53.678;14.080;2023-04-03T13:10:15;9.10;91.10
6841;DHT22;3458;53.678;14.080;2023-04-03T13:12:54;9.50;90.40
6841;DHT22;3458;53.678;14.080;2023-04-03T13:15:44;9.90;90.00
6841;DHT22;3458;53.678;14.080;2023-04-03T13:18:27;9.80;86.40
6841;DHT22;3458;53.678;14.080;2023-04-03T13:20:55;9.70;87.30
6841;DHT22;3458;53.678;14.080;2023-04-03T13:23:22;9.80;85.30
6841;DHT22;3458;53.678;14.080;2023-04-03T13:25:49;9.90;86.30
6841;DHT22;3458;53.678;14.080;2023-04-03T13:28:19;10.10;84.90
6841;DHT22;3458;53.678;14.080;2023-04-03T13:31:02;10.10;83.70
6841;DHT22;3458;53.678;14.080;2023-04-03T13:33:30;10.20;83.50
6841;DHT22;3458;53.678;14.080;2023-04-03T13:36:04;10.20;82.20
6841;DHT22;3458;53.678;14.080;2023-04-03T13:38:32;10.10;82.80
6841;DHT22;3458;53.678;14.080;2023-04-03T13:41:01;10.10;83.20
6841;DHT22;3458;53.678;14.080;2023-04-03T13:43:32;10.30;80.60
6841;DHT22;3458;53.678;14.080;2023-04-03T13:46:01;10.90;82.60
6841;DHT22;3458;53.678;14.080;2023-04-03T13:48:37;11.10;78.30
6841;DHT22;3458;53.678;14.080;2023-04-03T13:51:18;11.00;79.10
6841;DHT22;3458;53.678;14.080;2023-04-03T13:53:55;10.90;78.00
6841;DHT22;3458;53.678;14.080;2023-04-03T13:58:56;10.60;77.40
6841;DHT22;3458;53.678;14.080;2023-04-03T14:01:24;10.50;77.30
6841;DHT22;3458;53.678;14.080;2023-04-03T14:03:54;10.60;78.20
6841;DHT22;3458;53.678;14.080;2023-04-03T14:06:20;11.70;78.90
6841;DHT22;3458;53.678;14.080;2023-04-03T14:08:47;12.20;76.20
6841;DHT22;3458;53.678;14.080;2023-04-03T14:11:17;12.10;74.30
6841;DHT22;3458;53.678;14.080;2023-04-03T14:13:44;12.50;75.30
6841;DHT22;3458;53.678;14.080;2023-04-03T14:16:23;12.10;74.00
6841;DHT22;3458;53.678;14.080;2023-04-03T14:18:50;11.20;75.30
6841;DHT22;3458;53.678;14.080;2023-04-03T14:21:17;10.40;77.40
6841;DHT22;3458;53.678;14.080;2023-04-03T14:23:44;10.10;78.40
6841;DHT22;3458;53.678;14.080;2023-04-03T14:26:18;10.00;79.80
6841;DHT22;3458;53.678;14.080;2023-04-03T14:28:50;9.60;81.70
6841;DHT22;3458;53.678;14.080;2023-04-03T14:31:17;9.30;83.30
6841;DHT22;3458;53.678;14.080;2023-04-03T14:33:44;8.80;83.80
6841;DHT22;3458;53.678;14.080;2023-04-03T14:36:30;8.40;85.00
6841;DHT22;3458;53.678;14.080;2023-04-03T14:38:57;7.90;87.40
6841;DHT22;3458;53.678;14.080;2023-04-03T14:41:25;7.50;89.80
6841;DHT22;3458;53.678;14.080;2023-04-03T14:43:51;7.00;91.10
6841;DHT22;3458;53.678;14.080;2023-04-03T14:46:26;6.60;91.60
6841;DHT22;3458;53.678;14.080;2023-04-03T14:48:52;6.40;92.10
6841;DHT22;3458;53.678;14.080;2023-04-03T14:51:17;6.40;92.60
6841;DHT22;3458;53.678;14.080;2023-04-03T14:53:43;6.30;93.10
6841;DHT22;3458;53.678;14.080;2023-04-03T14:56:28;6.10;92.80
6841;DHT22;3458;53.678;14.080;2023-04-03T14:58:57;6.10;92.50
6841;DHT22;3458;53.678;14.080;2023-04-03T15:01:23;6.10;92.00
6841;DHT22;3458;53.678;14.080;2023-04-03T15:03:49;6.10;91.30
6841;DHT22;3458;53.678;14.080;2023-04-03T15:06:15;6.20;91.10
6841;DHT22;3458;53.678;14.080;2023-04-03T15:08:42;6.30;91.10
6841;DHT22;3458;53.678;14.080;2023-04-03T15:11:09;6.50;91.00
6841;DHT22;3458;53.678;14.080;2023-04-03T15:13:36;6.60;90.50
6841;DHT22;3458;53.678;14.080;2023-04-03T15:16:01;6.60;90.40
6841;DHT22;3458;53.678;14.080;2023-04-03T15:18:30;6.60;90.30
6841;DHT22;3458;53.678;14.080;2023-04-03T15:20:57;6.50;90.40
6841;DHT22;3458;53.678;14.080;2023-04-03T15:23:24;6.50;90.70
6841;DHT22;3458;53.678;14.080;2023-04-03T15:25:52;6.50;90.30
6841;DHT22;3458;53.678;14.080;2023-04-03T15:28:22;6.30;90.50
6841;DHT22;3458;53.678;14.080;2023-04-03T15:30:47;6.30;90.50
6841;DHT22;3458;53.678;14.080;2023-04-03T15:33:13;6.30;90.60
6841;DHT22;3458;53.678;14.080;2023-04-03T15:35:41;6.40;91.10
6841;DHT22;3458;53.678;14.080;2023-04-03T15:38:06;6.50;91.20
6841;DHT22;3458;53.678;14.080;2023-04-03T15:40:32;6.60;91.20
6841;DHT22;3458;53.678;14.080;2023-04-03T15:42:57;6.70;90.60
6841;DHT22;3458;53.678;14.080;2023-04-03T15:45:23;6.80;90.20
6841;DHT22;3458;53.678;14.080;2023-04-03T15:47:48;7.00;89.30
6841;DHT22;3458;53.678;14.080;2023-04-03T15:50:14;7.10;87.50
6841;DHT22;3458;53.678;14.080;2023-04-03T15:52:40;7.30;88.20
6841;DHT22;3458;53.678;14.080;2023-04-03T15:55:06;7.20;86.90
6841;DHT22;3458;53.678;14.080;2023-04-03T15:57:32;7.50;87.60
6841;DHT22;3458;53.678;14.080;2023-04-03T15:59:57;7.40;87.00
6841;DHT22;3458;53.678;14.080;2023-04-03T16:02:23;7.10;87.30
6841;DHT22;3458;53.678;14.080;2023-04-03T16:04:49;6.80;87.50
6841;DHT22;3458;53.678;14.080;2023-04-03T16:07:14;6.60;88.80
6841;DHT22;3458;53.678;14.080;2023-04-03T16:09:40;6.40;89.50
6841;DHT22;3458;53.678;14.080;2023-04-03T16:12:06;6.30;90.20
6841;DHT22;3458;53.678;14.080;2023-04-03T16:14:31;6.20;90.30
6841;DHT22;3458;53.678;14.080;2023-04-03T16:16:58;6.10;90.50
6841;DHT22;3458;53.678;14.080;2023-04-03T16:19:24;6.00;90.40
6841;DHT22;3458;53.678;14.080;2023-04-03T16:21:49;5.90;90.30
6841;DHT22;3458;53.678;14.080;2023-04-03T16:24:15;5.90;90.50
6841;DHT22;3458;53.678;14.080;2023-04-03T16:26:41;5.80;90.90
6841;DHT22;3458;53.678;14.080;2023-04-03T16:29:06;5.80;91.10
6841;DHT22;3458;53.678;14.080;2023-04-03T16:31:33;5.80;91.30
6841;DHT22;3458;53.678;14.080;2023-04-03T16:34:00;5.80;91.30
6841;DHT22;3458;53.678;14.080;2023-04-03T16:36:25;5.70;91.10
6841;DHT22;3458;53.678;14.080;2023-04-03T16:38:51;5.70;91.10
6841;DHT22;3458;53.678;14.080;2023-04-03T16:41:17;5.70;91.60
6841;DHT22;3458;53.678;14.080;2023-04-03T16:43:42;5.70;92.00
6841;DHT22;3458;53.678;14.080;2023-04-03T16:46:08;5.60;91.70
6841;DHT22;3458;53.678;14.080;2023-04-03T16:48:33;5.60;92.10
6841;DHT22;3458;53.678;14.080;2023-04-03T16:51:00;5.60;92.30
6841;DHT22;3458;53.678;14.080;2023-04-03T16:53:26;5.50;91.90
6841;DHT22;3458;53.678;14.080;2023-04-03T16:55:52;5.50;91.70
6841;DHT22;3458;53.678;14.080;2023-04-03T16:58:18;5.50;91.80
6841;DHT22;3458;53.678;14.080;2023-04-03T17:00:43;5.40;91.60
6841;DHT22;3458;53.678;14.080;2023-04-03T17:03:09;5.40;91.80
6841;DHT22;3458;53.678;14.080;2023-04-03T17:05:35;5.40;92.10
6841;DHT22;3458;53.678;14.080;2023-04-03T17:08:00;5.40;91.90